Time;durP1;ratioP1;P1;durP2;ratioP2;P2;SDS_P1;SDS_P2;PMS_P1;PMS_P2;Temp;Humidity;BMP_temperature;BMP_pressure;BME280_temperature;BME280_humidity;BME280_pressure;Samples;Min_cycle;Max_cycle;Signal;HPM_P1;HPM_P2
2022/03/10 00:02:58;;;;;;;30.88;19.23;;;;;;;;;;10339674;28;20054;-67
2022/03/10 00:08:00;;;;;;;26.55;16.48;;;;;;;;;;10317806;28;20097;-67
2022/03/10 00:13:04;;;;;;;27.70;16.08;;;;;;;;;;10318152;28;20046;-67
2022/03/10 00:18:06;;;;;;;27.63;16.70;;;;;;;;;;10342117;28;20058;-67
2022/03/10 00:23:08;;;;;;;26.75;16.60;;;;;;;;;;10321436;28;20047;-67
2022/03/10 00:28:13;;;;;;;22.40;13.77;;;;;;;;;;10310553;28;20052;-67
2022/03/10 00:33:16;;;;;;;29.73;17.98;;;;;;;;;;10277942;28;20073;-67
2022/03/10 00:38:19;;;;;;;24.25;14.85;;;;;;;;;;10306483;28;20059;-67
2022/03/10 00:43:23;;;;;;;30.55;17.27;;;;;;;;;;10354517;28;20046;-67
2022/03/10 00:48:25;;;;;;;26.65;16.42;;;;;;;;;;10358012;28;20344;-67
2022/03/10 00:53:28;;;;;;;32.25;18.55;;;;;;;;;;10325442;28;20047;-67
2022/03/10 00:58:31;;;;;;;34.25;19.42;;;;;;;;;;10331765;28;20050;-67
2022/03/10 01:03:34;;;;;;;28.48;15.70;;;;;;;;;;10340272;28;20043;-67
2022/03/10 01:08:36;;;;;;;27.17;15.88;;;;;;;;;;10328426;28;20329;-67
2022/03/10 01:13:40;;;;;;;29.52;15.23;;;;;;;;;;10324166;28;20074;-67
2022/03/10 01:18:43;;;;;;;24.30;14.57;;;;;;;;;;10315788;28;20271;-67
2022/03/10 01:23:45;;;;;;;24.08;14.45;;;;;;;;;;10318114;28;20093;-67
2022/03/10 01:28:49;;;;;;;26.55;15.50;;;;;;;;;;10347019;28;20042;-67
2022/03/10 01:33:51;;;;;;;22.95;13.38;;;;;;;;;;10332510;28;20280;-67
2022/03/10 01:38:55;;;;;;;26.45;14.30;;;;;;;;;;10334452;28;20384;-67
2022/03/10 01:44:00;;;;;;;26.05;14.75;;;;;;;;;;10355373;28;20052;-67
2022/03/10 01:49:02;;;;;;;;;;;;;;;;;;10346321;28;20048;-67
2022/03/10 01:54:05;;;;;;;27.02;15.27;;;;;;;;;;10310368;28;19918;-67
2022/03/10 01:59:10;;;;;;;29.27;15.50;;;;;;;;;;10314206;28;20042;-67
2022/03/10 02:04:13;;;;;;;31.57;16.93;;;;;;;;;;10312882;28;20054;-67
2022/03/10 02:19:58;;;;;;;25.17;13.80;;;;;;;;;;10324965;28;20433;-67
2022/03/10 02:25:03;;;;;;;18.02;11.38;;;;;;;;;;10312960;28;20058;-67
2022/03/10 02:30:07;;;;;;;22.13;12.50;;;;;;;;;;10342606;28;20042;-67
2022/03/10 02:35:10;;;;;;;22.35;12.32;;;;;;;;;;10290284;28;20061;-67
2022/03/10 02:40:15;;;;;;;20.52;11.55;;;;;;;;;;10343099;28;20042;-67
2022/03/10 02:45:17;;;;;;;25.17;13.23;;;;;;;;;;10334476;28;20055;-67
2022/03/10 02:50:20;;;;;;;21.25;12.55;;;;;;;;;;10309482;28;20046;-67
2022/03/10 02:55:24;;;;;;;23.73;13.73;;;;;;;;;;10331440;28;20062;-67
2022/03/10 03:00:26;;;;;;;23.48;13.27;;;;;;;;;;10332394;28;20043;-67
2022/03/10 03:05:29;;;;;;;22.23;12.77;;;;;;;;;;10310980;28;20364;-66
2022/03/10 03:10:36;;;;;;;18.30;10.68;;;;;;;;;;10310437;28;20057;-66
2022/03/10 03:15:39;;;;;;;21.52;11.43;;;;;;;;;;10309767;28;20339;-66
2022/03/10 03:20:41;;;;;;;20.38;12.15;;;;;;;;;;10310014;28;20050;-66
2022/03/10 03:25:45;;;;;;;20.23;11.15;;;;;;;;;;10322951;28;20247;-65
2022/03/10 03:30:47;;;;;;;22.60;12.60;;;;;;;;;;10324092;28;20051;-67
2022/03/10 03:35:50;;;;;;;21.83;11.45;;;;;;;;;;10320387;28;20050;-67
2022/03/10 03:40:54;;;;;;;26.05;13.82;;;;;;;;;;10339870;28;20058;-67
2022/03/10 03:45:57;;;;;;;23.25;12.23;;;;;;;;;;10319341;28;20046;-66
2022/03/10 03:51:00;;;;;;;26.15;12.70;;;;;;;;;;10309949;28;20215;-66
2022/03/10 03:56:03;;;;;;;22.52;12.52;;;;;;;;;;10313470;28;20085;-67
2022/03/10 04:01:06;;;;;;;28.80;14.48;;;;;;;;;;10315237;28;20051;-66
2022/03/10 04:06:08;;;;;;;27.40;14.13;;;;;;;;;;10310685;28;20101;-67
2022/03/10 04:11:12;;;;;;;30.42;13.93;;;;;;;;;;10348077;28;20174;-66
2022/03/10 04:16:14;;;;;;;22.77;12.18;;;;;;;;;;10270229;28;20043;-66
2022/03/10 04:21:17;;;;;;;25.17;13.45;;;;;;;;;;10308856;28;20334;-66
2022/03/10 04:26:21;;;;;;;25.83;13.13;;;;;;;;;;10330712;28;20050;-66
2022/03/10 04:31:23;;;;;;;23.20;12.32;;;;;;;;;;10309141;28;20094;-67
2022/03/10 04:36:26;;;;;;;30.13;12.55;;;;;;;;;;10309929;28;20392;-67
2022/03/10 04:41:30;;;;;;;27.23;13.45;;;;;;;;;;10312439;28;20049;-66
2022/03/10 04:46:32;;;;;;;34.38;15.00;;;;;;;;;;10317496;28;20038;-67
2022/03/10 04:51:35;;;;;;;30.40;14.80;;;;;;;;;;10353078;28;20042;-67
2022/03/10 04:56:38;;;;;;;28.75;16.02;;;;;;;;;;10328600;28;20042;-67
2022/03/10 05:01:40;;;;;;;22.60;12.50;;;;;;;;;;10316365;28;20055;-67
2022/03/10 05:06:43;;;;;;;26.75;13.65;;;;;;;;;;10276023;29;20217;-66
2022/03/10 05:11:46;;;;;;;27.92;13.68;;;;;;;;;;10326404;28;20088;-66
2022/03/10 05:16:49;;;;;;;30.30;14.93;;;;;;;;;;10355758;28;20046;-67
2022/03/10 05:21:52;;;;;;;26.55;13.82;;;;;;;;;;10337611;28;20046;-67
2022/03/10 05:26:57;;;;;;;24.15;12.55;;;;;;;;;;10315891;28;20065;-66
2022/03/10 05:31:59;;;;;;;26.05;13.38;;;;;;;;;;10329076;28;20042;-67
2022/03/10 05:37:02;;;;;;;26.23;13.63;;;;;;;;;;10340786;28;20070;-67
2022/03/10 05:42:05;;;;;;;23.92;13.27;;;;;;;;;;10351555;28;20069;-67
2022/03/10 05:47:09;;;;;;;20.77;12.80;;;;;;;;;;10313862;28;20061;-67
2022/03/10 05:52:11;;;;;;;20.48;12.65;;;;;;;;;;10294488;28;20186;-68
2022/03/10 05:57:15;;;;;;;20.00;12.32;;;;;;;;;;10294965;28;20050;-68
2022/03/10 06:02:18;;;;;;;19.27;12.63;;;;;;;;;;10331320;28;20226;-67
2022/03/10 06:07:20;;;;;;;22.95;14.07;;;;;;;;;;10328234;28;20066;-67
2022/03/10 06:12:25;;;;;;;18.25;12.52;;;;;;;;;;10317842;28;20057;-68
2022/03/10 06:17:29;;;;;;;22.13;14.52;;;;;;;;;;10312279;28;20326;-68
2022/03/10 06:22:32;;;;;;;;;;;;;;;;;;10313376;28;20333;-68
2022/03/10 06:27:36;;;;;;;16.92;10.88;;;;;;;;;;10327065;28;20151;-69
2022/03/10 06:32:39;;;;;;;13.15;10.15;;;;;;;;;;10289920;28;20092;-69
2022/03/10 06:37:41;;;;;;;14.50;10.43;;;;;;;;;;10309301;28;20070;-69
2022/03/10 06:42:45;;;;;;;14.98;9.75;;;;;;;;;;10305606;28;20046;-68
2022/03/10 06:47:47;;;;;;;13.90;9.95;;;;;;;;;;10311614;28;20038;-67
2022/03/10 06:52:51;;;;;;;11.10;9.07;;;;;;;;;;10277677;28;20087;-68
2022/03/10 06:57:55;;;;;;;;;;;;;;;;;;10296190;28;20054;-68
2022/03/10 07:02:57;;;;;;;13.30;9.90;;;;;;;;;;10294811;28;20217;-69
2022/03/10 07:08:00;;;;;;;12.93;9.43;;;;;;;;;;10322510;28;20227;-68
2022/03/10 07:13:03;;;;;;;12.00;9.23;;;;;;;;;;10334666;28;20059;-68
2022/03/10 07:18:06;;;;;;;15.32;9.98;;;;;;;;;;10304023;28;20059;-68
2022/03/10 07:23:09;;;;;;;11.95;10.00;;;;;;;;;;10305113;28;20057;-68
2022/03/10 07:28:12;;;;;;;10.13;8.57;;;;;;;;;;10345499;28;20046;-67
2022/03/10 07:33:15;;;;;;;12.90;9.80;;;;;;;;;;10280100;28;20046;-68
2022/03/10 07:38:18;;;;;;;9.77;8.35;;;;;;;;;;10307764;28;20051;-66
2022/03/10 07:43:21;;;;;;;11.90;8.35;;;;;;;;;;10345186;28;20054;-65
2022/03/10 07:48:24;;;;;;;10.13;7.43;;;;;;;;;;10335236;28;20047;-68
2022/03/10 07:53:26;;;;;;;;;;;;;;;;;;10310700;28;20051;-68
2022/03/10 07:58:30;;;;;;;10.82;7.50;;;;;;;;;;10317600;28;19917;-64
2022/03/10 08:03:32;;;;;;;9.65;7.38;;;;;;;;;;10350773;28;20281;-68
2022/03/10 08:08:34;;;;;;;12.75;9.00;;;;;;;;;;10310101;28;20043;-66
2022/03/10 08:13:38;;;;;;;8.40;6.07;;;;;;;;;;10328701;28;20054;-66
2022/03/10 08:18:40;;;;;;;7.45;5.32;;;;;;;;;;10357659;28;20042;-68
2022/03/10 08:23:43;;;;;;;8.68;7.68;;;;;;;;;;10413732;23;20050;-67
2022/03/10 08:33:57;;;;;;;13.15;10.82;;;;;;;;;;12246892;23;20275;-66
2022/03/10 08:38:59;;;;;;;7.57;6.75;;;;;;;;;;10379526;23;20066;-70
2022/03/10 08:44:03;;;;;;;7.43;5.63;;;;;;;;;;10316544;28;20072;-69
2022/03/10 08:49:07;;;;;;;6.68;5.18;;;;;;;;;;10315883;28;20062;-70
2022/03/10 08:54:10;;;;;;;6.25;5.65;;;;;;;;;;10315169;28;20038;-71
2022/03/10 08:59:13;;;;;;;6.63;5.90;;;;;;;;;;10315926;28;20332;-70
2022/03/10 09:04:17;;;;;;;8.95;6.85;;;;;;;;;;10314671;28;20078;-69
2022/03/10 09:09:19;;;;;;;6.22;5.35;;;;;;;;;;10315498;28;20082;-69
2022/03/10 09:14:21;;;;;;;8.68;6.25;;;;;;;;;;10309061;28;20050;-69
2022/03/10 09:19:25;;;;;;;6.95;5.63;;;;;;;;;;10310429;28;20088;-69
2022/03/10 09:24:27;;;;;;;6.43;5.63;;;;;;;;;;10314600;28;20364;-68
2022/03/10 09:29:30;;;;;;;9.38;6.00;;;;;;;;;;10313607;28;20089;-68
2022/03/10 09:34:33;;;;;;;9.32;6.00;;;;;;;;;;10315384;28;20261;-68
2022/03/10 09:39:36;;;;;;;10.77;8.02;;;;;;;;;;10314268;28;20062;-68
2022/03/10 09:44:43;;;;;;;9.90;6.70;;;;;;;;;;10324789;28;20046;-68
2022/03/10 09:49:47;;;;;;;10.60;7.85;;;;;;;;;;10184924;28;20630;-68
2022/03/10 09:54:49;;;;;;;8.73;7.00;;;;;;;;;;10311433;28;20221;-68
2022/03/10 09:59:53;;;;;;;8.30;6.97;;;;;;;;;;10314426;28;20206;-68
2022/03/10 10:04:57;;;;;;;11.75;8.15;;;;;;;;;;10313909;28;20062;-68
2022/03/10 10:10:00;;;;;;;13.43;7.93;;;;;;;;;;10313730;28;20342;-68
2022/03/10 10:15:09;;;;;;;14.10;7.35;;;;;;;;;;10315189;28;20053;-69
2022/03/10 10:20:13;;;;;;;13.35;7.43;;;;;;;;;;10315532;28;20050;-69
2022/03/10 10:25:21;;;;;;;12.18;7.78;;;;;;;;;;10322739;28;20058;-67
2022/03/10 10:30:23;;;;;;;11.45;7.47;;;;;;;;;;10328902;28;20217;-67
2022/03/10 10:35:26;;;;;;;10.30;7.43;;;;;;;;;;10308738;28;20084;-67
2022/03/10 10:40:31;;;;;;;11.80;7.78;;;;;;;;;;10311959;28;20058;-67
2022/03/10 10:45:35;;;;;;;13.07;8.38;;;;;;;;;;10307139;28;20249;-69
2022/03/10 10:50:40;;;;;;;10.88;7.65;;;;;;;;;;10313005;28;20062;-67
2022/03/10 10:55:45;;;;;;;15.82;8.60;;;;;;;;;;10313690;28;20062;-69
2022/03/10 11:00:49;;;;;;;16.40;9.73;;;;;;;;;;10326381;28;20054;-68
2022/03/10 11:05:54;;;;;;;13.40;8.98;;;;;;;;;;10314656;28;20059;-68
2022/03/10 11:10:56;;;;;;;14.35;9.60;;;;;;;;;;10311792;28;20042;-67
2022/03/10 11:15:59;;;;;;;13.90;9.35;;;;;;;;;;10313864;28;20055;-68
2022/03/10 11:21:12;;;;;;;17.58;10.07;;;;;;;;;;10312763;28;20066;-68
2022/03/10 11:26:21;;;;;;;16.58;9.68;;;;;;;;;;10321028;28;20281;-68
2022/03/10 11:31:24;;;;;;;14.70;9.60;;;;;;;;;;10325028;28;20383;-69
2022/03/10 11:36:30;;;;;;;14.77;9.85;;;;;;;;;;10310622;28;20063;-68
2022/03/10 11:41:43;;;;;;;17.00;10.68;;;;;;;;;;10312777;28;20102;-68
2022/03/10 11:46:53;;;;;;;21.88;12.35;;;;;;;;;;10323855;28;20050;-69
2022/03/10 11:51:59;;;;;;;16.55;10.60;;;;;;;;;;10309323;28;20057;-69
2022/03/10 11:57:04;;;;;;;15.70;10.43;;;;;;;;;;10318245;28;20270;-68
2022/03/10 12:02:08;;;;;;;16.83;9.30;;;;;;;;;;10293650;28;20092;-69
2022/03/10 12:07:17;;;;;;;15.98;9.57;;;;;;;;;;10310009;28;20047;-69
2022/03/10 12:12:21;;;;;;;39.38;11.10;;;;;;;;;;10310627;28;20046;-69
2022/03/10 12:17:54;;;;;;;15.65;9.50;;;;;;;;;;10310236;28;20102;-69
2022/03/10 12:23:12;;;;;;;17.98;10.52;;;;;;;;;;10268412;28;20055;-72
2022/03/10 12:28:27;;;;;;;19.40;10.95;;;;;;;;;;10324629;28;20142;-68
2022/03/10 12:33:29;;;;;;;16.60;9.05;;;;;;;;;;10299807;28;20345;-69
2022/03/10 12:38:41;;;;;;;14.13;9.60;;;;;;;;;;10314565;28;20075;-68
2022/03/10 12:43:43;;;;;;;14.57;9.77;;;;;;;;;;10317875;28;20066;-69
2022/03/10 12:48:52;;;;;;;13.00;8.90;;;;;;;;;;10305358;28;20230;-68
2022/03/10 12:53:58;;;;;;;14.48;8.95;;;;;;;;;;10284815;28;20057;-70
2022/03/10 12:59:00;;;;;;;15.45;9.30;;;;;;;;;;10324652;28;20416;-70
2022/03/10 13:04:03;;;;;;;13.27;8.43;;;;;;;;;;10315286;28;20218;-66
2022/03/10 13:09:06;;;;;;;14.98;9.27;;;;;;;;;;10317401;28;20050;-68
2022/03/10 13:14:11;;;;;;;13.48;9.07;;;;;;;;;;10316301;28;20093;-67
2022/03/10 13:19:23;;;;;;;13.70;8.30;;;;;;;;;;10317799;28;20277;-67
2022/03/10 13:24:46;;;;;;;12.30;7.88;;;;;;;;;;10331200;28;20483;-68
2022/03/10 13:29:52;;;;;;;14.98;8.80;;;;;;;;;;10317340;28;20329;-68
2022/03/10 13:34:56;;;;;;;13.40;8.07;;;;;;;;;;10303557;28;20074;-67
2022/03/10 13:40:02;;;;;;;12.32;8.65;;;;;;;;;;10316726;28;20289;-68
2022/03/10 13:45:05;;;;;;;;;;;;;;;;;;10316587;28;20066;-68
2022/03/10 13:50:11;;;;;;;14.13;8.68;;;;;;;;;;10299253;28;19930;-67
2022/03/10 13:55:14;;;;;;;12.90;8.80;;;;;;;;;;10327572;28;20144;-67
2022/03/10 14:00:17;;;;;;;15.82;8.80;;;;;;;;;;10314214;28;20050;-69
2022/03/10 14:05:21;;;;;;;16.65;9.07;;;;;;;;;;10314194;28;20046;-68
2022/03/10 14:10:31;;;;;;;14.98;9.13;;;;;;;;;;10315075;28;20051;-68
2022/03/10 14:15:36;;;;;;;15.98;8.63;;;;;;;;;;10314184;28;20050;-68
2022/03/10 14:20:43;;;;;;;10.95;7.88;;;;;;;;;;10315036;28;20050;-68
2022/03/10 14:25:49;;;;;;;14.55;7.88;;;;;;;;;;10313428;28;20038;-69
2022/03/10 14:30:53;;;;;;;12.02;8.20;;;;;;;;;;10328103;28;20059;-68
2022/03/10 14:35:55;;;;;;;11.93;8.23;;;;;;;;;;10313921;28;20055;-70
2022/03/10 14:40:59;;;;;;;10.68;7.32;;;;;;;;;;10314044;28;20057;-67
2022/03/10 14:46:02;;;;;;;13.52;8.65;;;;;;;;;;10314410;28;20073;-67
2022/03/10 14:51:06;;;;;;;13.07;7.60;;;;;;;;;;10314867;28;20058;-67
2022/03/10 14:56:10;;;;;;;12.65;8.15;;;;;;;;;;10312467;28;20058;-67
2022/03/10 15:01:12;;;;;;;9.35;6.93;;;;;;;;;;10309444;28;20085;-67
2022/03/10 15:06:15;;;;;;;16.23;8.40;;;;;;;;;;10313445;28;20054;-66
2022/03/10 15:11:19;;;;;;;14.32;7.82;;;;;;;;;;10312323;28;20043;-67
2022/03/10 15:16:21;;;;;;;15.57;7.63;;;;;;;;;;10314199;28;20055;-67
2022/03/10 15:21:24;;;;;;;14.73;8.32;;;;;;;;;;10313631;28;20105;-68
2022/03/10 15:26:27;;;;;;;13.05;7.47;;;;;;;;;;10312285;28;20046;-68
2022/03/10 15:31:31;;;;;;;11.95;7.20;;;;;;;;;;10325857;28;20043;-67
2022/03/10 15:36:34;;;;;;;12.70;7.65;;;;;;;;;;10313295;28;20086;-68
2022/03/10 15:41:41;;;;;;;14.50;8.25;;;;;;;;;;10311815;28;20051;-67
2022/03/10 15:46:43;;;;;;;14.20;7.75;;;;;;;;;;10286296;28;20047;-67
2022/03/10 15:51:46;;;;;;;14.93;8.00;;;;;;;;;;10294204;28;20097;-67
2022/03/10 15:56:51;;;;;;;16.95;9.30;;;;;;;;;;10310704;28;20062;-67
2022/03/10 16:01:53;;;;;;;17.80;9.68;;;;;;;;;;10310589;28;20244;-67
2022/03/10 16:06:56;;;;;;;15.07;7.50;;;;;;;;;;10313243;28;20042;-66
2022/03/10 16:11:59;;;;;;;21.58;8.45;;;;;;;;;;10312828;28;20054;-68
2022/03/10 16:17:02;;;;;;;26.73;11.05;;;;;;;;;;10312528;28;20059;-67
2022/03/10 16:22:04;;;;;;;30.20;10.70;;;;;;;;;;10311833;28;20051;-67
2022/03/10 16:27:09;;;;;;;21.25;9.10;;;;;;;;;;10312834;28;20055;-67
2022/03/10 16:32:11;;;;;;;22.95;10.35;;;;;;;;;;10311385;28;20089;-68
2022/03/10 16:37:14;;;;;;;23.63;9.73;;;;;;;;;;10312887;28;20050;-66
2022/03/10 16:42:18;;;;;;;20.42;9.40;;;;;;;;;;10318801;28;20042;-68
2022/03/10 16:47:20;;;;;;;14.73;8.18;;;;;;;;;;10318257;28;20054;-67
2022/03/10 16:52:22;;;;;;;16.85;8.13;;;;;;;;;;10318501;28;20051;-68
2022/03/10 16:57:27;;;;;;;17.38;7.75;;;;;;;;;;10318138;28;20237;-66
2022/03/10 17:02:32;;;;;;;16.60;7.67;;;;;;;;;;10319643;28;20050;-67
2022/03/10 17:07:34;;;;;;;16.13;7.57;;;;;;;;;;10317226;28;20102;-66
2022/03/10 17:12:38;;;;;;;15.63;7.53;;;;;;;;;;10317216;28;20120;-67
2022/03/10 17:17:40;;;;;;;20.73;8.68;;;;;;;;;;10316857;28;20253;-67
2022/03/10 17:22:43;;;;;;;23.98;10.65;;;;;;;;;;10317106;28;20050;-68
2022/03/10 17:27:47;;;;;;;22.80;9.63;;;;;;;;;;10317417;28;20093;-67
2022/03/10 17:32:49;;;;;;;21.77;9.73;;;;;;;;;;10318096;28;20050;-68
2022/03/10 17:37:52;;;;;;;26.17;10.50;;;;;;;;;;10315690;28;20069;-66
2022/03/10 17:42:56;;;;;;;31.25;11.93;;;;;;;;;;10318473;28;20062;-69
2022/03/10 17:47:59;;;;;;;35.92;17.58;;;;;;;;;;10315567;28;20316;-67
2022/03/10 17:53:04;;;;;;;40.90;18.95;;;;;;;;;;10316984;28;20061;-67
2022/03/10 17:58:07;;;;;;;41.67;14.27;;;;;;;;;;10315751;28;20043;-67
2022/03/10 18:03:10;;;;;;;50.00;16.98;;;;;;;;;;10316050;28;20058;-67
2022/03/10 18:08:12;;;;;;;53.10;16.55;;;;;;;;;;10316201;28;20069;-68
2022/03/10 18:13:16;;;;;;;53.35;15.88;;;;;;;;;;10314481;28;20241;-68
2022/03/10 18:18:25;;;;;;;56.83;16.77;;;;;;;;;;10315409;28;20054;-68
2022/03/10 18:23:30;;;;;;;32.60;12.40;;;;;;;;;;10316573;28;20078;-67
2022/03/10 18:28:34;;;;;;;35.85;14.27;;;;;;;;;;10317382;28;20231;-68
2022/03/10 18:33:38;;;;;;;47.03;16.25;;;;;;;;;;10316644;28;20054;-67
2022/03/10 18:38:41;;;;;;;51.13;18.40;;;;;;;;;;10315550;28;20062;-67
2022/03/10 18:43:44;;;;;;;56.95;16.95;;;;;;;;;;10315047;28;20042;-67
2022/03/10 18:48:47;;;;;;;35.03;13.35;;;;;;;;;;10315249;28;20050;-67
2022/03/10 18:53:49;;;;;;;27.92;10.98;;;;;;;;;;10315124;28;20047;-67
2022/03/10 18:58:54;;;;;;;26.65;10.88;;;;;;;;;;10313058;28;20322;-66
2022/03/10 19:03:56;;;;;;;34.47;13.98;;;;;;;;;;10315067;28;20054;-68
2022/03/10 19:08:59;;;;;;;36.05;14.95;;;;;;;;;;10314280;28;20051;-67
2022/03/10 19:14:03;;;;;;;33.78;13.05;;;;;;;;;;10312187;28;20078;-68
2022/03/10 19:19:06;;;;;;;37.22;13.65;;;;;;;;;;10313927;28;20095;-68
2022/03/10 19:24:08;;;;;;;35.13;13.88;;;;;;;;;;10313463;28;20065;-68
2022/03/10 19:29:13;;;;;;;36.00;14.48;;;;;;;;;;10314325;28;20035;-67
2022/03/10 19:34:18;;;;;;;38.35;14.18;;;;;;;;;;10313141;28;20043;-68
2022/03/10 19:39:21;;;;;;;44.00;17.05;;;;;;;;;;10295099;28;20058;-67
2022/03/10 19:44:25;;;;;;;38.55;15.88;;;;;;;;;;10312355;28;20317;-67
2022/03/10 19:49:28;;;;;;;37.60;16.38;;;;;;;;;;10313164;28;20097;-68
2022/03/10 19:54:30;;;;;;;41.38;16.02;;;;;;;;;;10311832;28;20050;-67
2022/03/10 19:59:34;;;;;;;36.35;15.80;;;;;;;;;;10312101;28;20042;-68
2022/03/10 20:04:37;;;;;;;46.90;16.40;;;;;;;;;;10312581;28;20043;-68
2022/03/10 20:09:41;;;;;;;47.92;17.25;;;;;;;;;;10312134;28;20043;-66
2022/03/10 20:14:45;;;;;;;54.70;19.95;;;;;;;;;;10318151;28;20248;-68
2022/03/10 20:19:47;;;;;;;58.80;21.13;;;;;;;;;;10320256;28;20058;-66
2022/03/10 20:24:50;;;;;;;46.33;18.30;;;;;;;;;;10319983;28;20061;-68
2022/03/10 20:29:54;;;;;;;36.97;13.68;;;;;;;;;;10324316;28;20055;-67
2022/03/10 20:34:56;;;;;;;29.77;12.50;;;;;;;;;;10318920;28;20060;-68
2022/03/10 20:39:59;;;;;;;35.90;15.18;;;;;;;;;;10319276;28;20117;-67
2022/03/10 20:45:03;;;;;;;31.33;13.57;;;;;;;;;;10317757;28;20051;-67
2022/03/10 20:50:07;;;;;;;27.40;12.88;;;;;;;;;;10319196;28;20334;-68
2022/03/10 20:55:12;;;;;;;26.70;11.88;;;;;;;;;;10320677;28;20069;-68
2022/03/10 21:00:17;;;;;;;27.20;11.88;;;;;;;;;;10317961;28;20356;-67
2022/03/10 21:05:19;;;;;;;24.65;11.05;;;;;;;;;;10317613;28;20110;-68
2022/03/10 21:10:22;;;;;;;30.15;12.65;;;;;;;;;;10320204;28;20070;-68
2022/03/10 21:15:26;;;;;;;37.45;14.05;;;;;;;;;;10318550;28;20047;-66
2022/03/10 21:20:28;;;;;;;29.27;11.70;;;;;;;;;;10317289;28;20142;-66
2022/03/10 21:25:32;;;;;;;39.42;14.55;;;;;;;;;;10316429;28;20053;-66
2022/03/10 21:30:36;;;;;;;41.25;14.57;;;;;;;;;;10318577;28;20234;-67
2022/03/10 21:35:39;;;;;;;44.28;15.13;;;;;;;;;;10317692;28;20043;-68
2022/03/10 21:40:44;;;;;;;38.00;14.30;;;;;;;;;;10318094;28;20349;-67
2022/03/10 21:45:48;;;;;;;33.03;12.20;;;;;;;;;;10320338;28;20338;-67
2022/03/10 21:50:50;;;;;;;28.35;11.27;;;;;;;;;;10318378;28;20055;-66
2022/03/10 21:55:53;;;;;;;25.35;10.50;;;;;;;;;;10317192;28;20098;-67
2022/03/10 22:00:58;;;;;;;23.65;11.85;;;;;;;;;;10318008;28;20051;-67
2022/03/10 22:06:00;;;;;;;29.77;13.75;;;;;;;;;;10299463;28;20067;-67
2022/03/10 22:11:03;;;;;;;26.45;11.65;;;;;;;;;;10316929;28;20066;-67
2022/03/10 22:16:07;;;;;;;30.35;12.07;;;;;;;;;;10316672;28;20066;-67
2022/03/10 22:21:10;;;;;;;31.92;12.88;;;;;;;;;;10315820;28;20061;-66
2022/03/10 22:26:14;;;;;;;34.53;14.32;;;;;;;;;;10317155;28;20111;-66
2022/03/10 22:31:18;;;;;;;32.33;12.98;;;;;;;;;;10315856;28;20050;-67
2022/03/10 22:36:20;;;;;;;36.00;12.48;;;;;;;;;;10315661;28;20317;-67
2022/03/10 22:41:23;;;;;;;30.85;13.05;;;;;;;;;;10315249;28;20066;-67
2022/03/10 22:46:28;;;;;;;28.65;12.38;;;;;;;;;;10315733;28;20046;-67
2022/03/10 22:56:52;;;;;;;31.98;13.43;;;;;;;;;;10313560;28;20236;-67
2022/03/10 23:01:55;;;;;;;46.58;16.00;;;;;;;;;;10297351;28;20169;-66
2022/03/10 23:12:18;;;;;;;36.35;14.40;;;;;;;;;;10312788;28;20434;-67
2022/03/10 23:17:21;;;;;;;40.60;15.80;;;;;;;;;;10313689;28;20078;-66
2022/03/10 23:22:23;;;;;;;48.80;17.60;;;;;;;;;;10312368;28;20043;-66
2022/03/10 23:27:26;;;;;;;50.92;17.75;;;;;;;;;;10312040;28;20039;-67
2022/03/10 23:32:30;;;;;;;51.42;16.80;;;;;;;;;;10312265;28;20039;-66
2022/03/10 23:37:33;;;;;;;33.47;14.55;;;;;;;;;;10311241;28;20062;-67
2022/03/10 23:42:35;;;;;;;37.88;14.15;;;;;;;;;;10311547;28;20046;-67
2022/03/10 23:47:39;;;;;;;43.53;16.42;;;;;;;;;;10310024;28;20130;-67
2022/03/10 23:52:41;;;;;;;37.25;15.77;;;;;;;;;;10312877;28;20058;-66
2022/03/10 23:57:44;;;;;;;31.40;14.02;;;;;;;;;;10311368;28;20242;-67
